Time;durP1;ratioP1;P1;durP2;ratioP2;P2;SDS_P1;SDS_P2;PMS_P1;PMS_P2;Temp;Humidity;BMP_temperature;BMP_pressure;BME280_temperature;BME280_humidity;BME280_pressure;Samples;Min_cycle;Max_cycle;Signal;HPM_P1;HPM_P2
2023/05/10 00:00:53;;;;;;;14.88;13.27;;;;;;;;;;5071189;28;20052;-80
2023/05/10 00:03:19;;;;;;;16.40;13.13;;;;;;;;;;5105799;27;20105;-79
2023/05/10 00:05:45;;;;;;;17.15;13.85;;;;;;;;;;5063693;28;20459;-79
2023/05/10 00:08:11;;;;;;;17.25;14.25;;;;;;;;;;5105575;27;20028;-79
2023/05/10 00:10:37;;;;;;;20.73;15.43;;;;;;;;;;5071569;28;20119;-81
2023/05/10 00:13:03;;;;;;;20.52;15.48;;;;;;;;;;5097211;27;20045;-83
2023/05/10 00:15:32;;;;;;;20.50;16.17;;;;;;;;;;5080793;28;20040;-80
2023/05/10 00:17:58;;;;;;;23.65;16.80;;;;;;;;;;5070304;28;20090;-80
2023/05/10 00:20:24;;;;;;;22.30;16.85;;;;;;;;;;5080656;28;20050;-79
2023/05/10 00:22:50;;;;;;;20.77;15.88;;;;;;;;;;5075351;28;20054;-80
2023/05/10 00:25:16;;;;;;;18.05;14.30;;;;;;;;;;5091972;28;20079;-80
2023/05/10 00:27:42;;;;;;;18.20;13.73;;;;;;;;;;5103274;27;21006;-80
2023/05/10 00:30:08;;;;;;;18.38;13.27;;;;;;;;;;5078069;28;22257;-80
2023/05/10 00:32:34;;;;;;;16.85;13.25;;;;;;;;;;5075036;28;20052;-79
2023/05/10 00:35:01;;;;;;;18.98;13.93;;;;;;;;;;5082698;28;20055;-80
2023/05/10 00:37:27;;;;;;;17.25;12.98;;;;;;;;;;5114013;27;20395;-79
2023/05/10 00:39:53;;;;;;;20.65;13.55;;;;;;;;;;5099284;27;20040;-79
2023/05/10 00:42:19;;;;;;;20.45;13.23;;;;;;;;;;5082493;28;20044;-81
2023/05/10 00:44:46;;;;;;;20.98;14.05;;;;;;;;;;5067282;28;20044;-80
2023/05/10 00:47:12;;;;;;;18.85;13.70;;;;;;;;;;5099546;27;20165;-81
2023/05/10 00:49:38;;;;;;;16.27;12.60;;;;;;;;;;5084789;28;20568;-79
2023/05/10 00:52:04;;;;;;;20.17;15.23;;;;;;;;;;5066553;28;20139;-80
2023/05/10 00:54:30;;;;;;;22.00;14.52;;;;;;;;;;5082087;28;20085;-79
2023/05/10 00:56:57;;;;;;;22.52;15.55;;;;;;;;;;5078249;28;20036;-81
2023/05/10 00:59:23;;;;;;;20.20;15.00;;;;;;;;;;5071907;28;20048;-81
2023/05/10 01:01:49;;;;;;;21.80;14.35;;;;;;;;;;5065506;28;20037;-82
2023/05/10 01:04:15;;;;;;;19.38;14.50;;;;;;;;;;5072561;28;20082;-81
2023/05/10 01:06:41;;;;;;;23.75;15.15;;;;;;;;;;5070448;28;20039;-81
2023/05/10 01:09:07;;;;;;;17.33;13.13;;;;;;;;;;5109252;27;20052;-81
2023/05/10 01:11:35;;;;;;;17.17;13.45;;;;;;;;;;5076962;28;20032;-82
2023/05/10 01:14:02;;;;;;;18.50;13.00;;;;;;;;;;5101513;27;20036;-82
2023/05/10 01:16:28;;;;;;;16.38;12.13;;;;;;;;;;5087280;28;20044;-78
2023/05/10 01:18:55;;;;;;;13.30;11.02;;;;;;;;;;5094956;28;20082;-79
2023/05/10 01:21:28;;;;;;;14.20;12.25;;;;;;;;;;5077589;28;20083;-78
2023/05/10 01:24:13;;;;;;;15.15;11.07;;;;;;;;;;5074386;28;20044;-79
2023/05/10 01:26:45;;;;;;;19.10;13.18;;;;;;;;;;5103610;27;20053;-81
2023/05/10 01:29:14;;;;;;;18.73;12.70;;;;;;;;;;5068292;28;20066;-78
2023/05/10 01:31:53;;;;;;;18.40;13.25;;;;;;;;;;5095675;27;20044;-80
2023/05/10 01:34:26;;;;;;;17.17;12.77;;;;;;;;;;5098709;27;20075;-78
2023/05/10 01:36:55;;;;;;;23.52;14.25;;;;;;;;;;5086920;28;20559;-79
2023/05/10 01:39:25;;;;;;;23.10;14.63;;;;;;;;;;5077562;28;20228;-79
2023/05/10 01:42:07;;;;;;;19.40;13.65;;;;;;;;;;5104443;27;20044;-79
2023/05/10 01:44:42;;;;;;;18.98;13.07;;;;;;;;;;5084970;28;20045;-79
2023/05/10 01:47:11;;;;;;;20.42;13.85;;;;;;;;;;5102721;27;20055;-79
2023/05/10 01:49:37;;;;;;;;;;;;;;;;;;5086731;28;20083;-79
2023/05/10 01:52:08;;;;;;;15.25;11.40;;;;;;;;;;5072852;28;19966;-81
2023/05/10 01:54:36;;;;;;;16.02;12.18;;;;;;;;;;5074692;28;20035;-78
2023/05/10 01:57:08;;;;;;;20.73;13.40;;;;;;;;;;5069528;28;20605;-79
2023/05/10 01:59:41;;;;;;;16.63;12.63;;;;;;;;;;5106720;28;20063;-80
2023/05/10 02:02:08;;;;;;;15.75;11.68;;;;;;;;;;5081905;28;20500;-82
2023/05/10 02:04:35;;;;;;;17.95;12.20;;;;;;;;;;5062601;28;20106;-80
2023/05/10 02:07:02;;;;;;;22.02;13.05;;;;;;;;;;5076201;28;20761;-79
2023/05/10 02:09:30;;;;;;;16.40;12.00;;;;;;;;;;5076893;28;20133;-78
2023/05/10 02:11:57;;;;;;;15.50;12.23;;;;;;;;;;5098392;28;20043;-79
2023/05/10 02:14:24;;;;;;;19.45;13.02;;;;;;;;;;5083143;28;20047;-79
2023/05/10 02:16:51;;;;;;;21.35;13.98;;;;;;;;;;5102910;27;20047;-80
2023/05/10 02:19:18;;;;;;;22.38;13.88;;;;;;;;;;5103975;27;20040;-79
2023/05/10 02:21:45;;;;;;;23.52;14.73;;;;;;;;;;5082568;28;20048;-79
2023/05/10 02:24:11;;;;;;;21.05;13.57;;;;;;;;;;5090897;28;20535;-79
2023/05/10 02:26:38;;;;;;;22.80;14.88;;;;;;;;;;5092106;27;20046;-80
2023/05/10 02:29:06;;;;;;;30.67;16.20;;;;;;;;;;5084716;28;20070;-79
2023/05/10 02:31:33;;;;;;;27.95;16.50;;;;;;;;;;5077817;28;20481;-79
2023/05/10 02:34:00;;;;;;;26.50;16.02;;;;;;;;;;5073620;28;20094;-79
2023/05/10 02:36:27;;;;;;;29.10;16.70;;;;;;;;;;5091734;28;20047;-79
2023/05/10 02:38:54;;;;;;;40.03;18.48;;;;;;;;;;5078505;28;20056;-80
2023/05/10 02:41:22;;;;;;;31.83;16.88;;;;;;;;;;5089357;28;20474;-79
2023/05/10 02:43:50;;;;;;;28.85;17.15;;;;;;;;;;5081962;28;20040;-79
2023/05/10 02:46:16;;;;;;;26.25;16.10;;;;;;;;;;5095551;27;20071;-79
2023/05/10 02:48:42;;;;;;;80.72;18.38;;;;;;;;;;5078596;28;20131;-79
2023/05/10 02:51:08;;;;;;;30.05;17.83;;;;;;;;;;5077623;28;20079;-80
2023/05/10 02:53:36;;;;;;;26.85;15.95;;;;;;;;;;5111796;27;20044;-79
2023/05/10 02:56:06;;;;;;;27.75;16.77;;;;;;;;;;5089590;28;20032;-81
2023/05/10 02:58:32;;;;;;;33.67;18.00;;;;;;;;;;5093326;28;20048;-79
2023/05/10 03:00:59;;;;;;;37.70;18.05;;;;;;;;;;5080456;28;20097;-80
2023/05/10 03:03:25;;;;;;;30.10;17.48;;;;;;;;;;5096219;27;20126;-81
2023/05/10 03:05:55;;;;;;;29.17;17.35;;;;;;;;;;5061456;28;20558;-81
2023/05/10 03:08:21;;;;;;;33.33;18.10;;;;;;;;;;5097503;28;20715;-83
2023/05/10 03:10:57;;;;;;;34.92;19.08;;;;;;;;;;5100774;27;20033;-79
2023/05/10 03:13:35;;;;;;;31.77;18.45;;;;;;;;;;5079199;28;20047;-80
2023/05/10 03:16:09;;;;;;;33.05;17.95;;;;;;;;;;5107434;27;20048;-84
2023/05/10 03:18:44;;;;;;;33.00;18.98;;;;;;;;;;5086812;28;20024;-82
2023/05/10 03:21:12;;;;;;;40.17;20.00;;;;;;;;;;5081579;28;20042;-81
2023/05/10 03:23:58;;;;;;;34.17;19.30;;;;;;;;;;5078314;28;20048;-80
2023/05/10 03:26:25;;;;;;;37.45;20.00;;;;;;;;;;5079701;28;20044;-83
2023/05/10 03:28:52;;;;;;;35.58;19.17;;;;;;;;;;5089004;27;20068;-84
2023/05/10 03:31:19;;;;;;;37.47;19.90;;;;;;;;;;5072222;28;20234;-83
2023/05/10 03:33:48;;;;;;;41.63;20.60;;;;;;;;;;5085339;28;20522;-82
2023/05/10 03:36:14;;;;;;;41.10;20.95;;;;;;;;;;5076129;28;20485;-80
2023/05/10 03:38:40;;;;;;;36.90;19.73;;;;;;;;;;5084521;27;20048;-81
2023/05/10 03:41:06;;;;;;;34.70;19.33;;;;;;;;;;5084158;28;20372;-80
2023/05/10 03:43:32;;;;;;;31.23;19.30;;;;;;;;;;5073777;28;20454;-80
2023/05/10 03:45:58;;;;;;;38.00;20.73;;;;;;;;;;5077421;28;20123;-80
2023/05/10 03:48:24;;;;;;;46.80;22.95;;;;;;;;;;5083272;28;20060;-80
2023/05/10 03:50:50;;;;;;;37.47;21.83;;;;;;;;;;5093095;28;20842;-80
2023/05/10 03:53:16;;;;;;;41.08;22.23;;;;;;;;;;5070459;28;20045;-80
2023/05/10 03:55:42;;;;;;;39.75;21.38;;;;;;;;;;5071888;28;20036;-81
2023/05/10 03:58:11;;;;;;;38.33;21.05;;;;;;;;;;5100954;27;20041;-80
2023/05/10 04:00:37;;;;;;;34.42;20.42;;;;;;;;;;5074871;28;20040;-79
2023/05/10 04:03:03;;;;;;;33.95;20.50;;;;;;;;;;5081416;28;20128;-80
2023/05/10 04:05:29;;;;;;;33.15;19.60;;;;;;;;;;5087446;28;20052;-81
2023/05/10 04:07:55;;;;;;;34.42;20.02;;;;;;;;;;5081968;28;20850;-80
2023/05/10 04:10:21;;;;;;;28.90;18.40;;;;;;;;;;5089625;28;20039;-81
2023/05/10 04:12:47;;;;;;;28.30;17.10;;;;;;;;;;5088765;28;20123;-81
2023/05/10 04:15:13;;;;;;;27.63;17.55;;;;;;;;;;5084178;28;20044;-79
2023/05/10 04:17:39;;;;;;;25.65;16.80;;;;;;;;;;5088208;28;20039;-80
2023/05/10 04:20:06;;;;;;;24.17;16.35;;;;;;;;;;5079511;28;20537;-80
2023/05/10 04:22:32;;;;;;;21.90;16.13;;;;;;;;;;5070770;28;20064;-79
2023/05/10 04:24:58;;;;;;;23.50;16.25;;;;;;;;;;5074900;28;20031;-79
2023/05/10 04:27:24;;;;;;;29.98;16.92;;;;;;;;;;5083205;28;20043;-80
2023/05/10 04:29:50;;;;;;;20.55;14.45;;;;;;;;;;5092432;28;20150;-80
2023/05/10 04:32:17;;;;;;;20.65;13.88;;;;;;;;;;5093756;28;20446;-80
2023/05/10 04:34:43;;;;;;;20.80;14.65;;;;;;;;;;5077540;28;20033;-79
2023/05/10 04:37:09;;;;;;;18.33;14.48;;;;;;;;;;5092418;27;20036;-81
2023/05/10 04:39:36;;;;;;;21.05;14.20;;;;;;;;;;5058180;28;20040;-79
2023/05/10 04:42:03;;;;;;;23.83;15.32;;;;;;;;;;5069051;28;20127;-79
2023/05/10 04:44:29;;;;;;;19.63;14.80;;;;;;;;;;5097326;27;20472;-79
2023/05/10 04:46:55;;;;;;;18.85;14.18;;;;;;;;;;5061669;28;20783;-79
2023/05/10 04:49:21;;;;;;;21.23;14.18;;;;;;;;;;5100919;27;20083;-79
2023/05/10 04:51:47;;;;;;;17.08;12.55;;;;;;;;;;5079364;28;20078;-79
2023/05/10 04:54:13;;;;;;;17.98;13.68;;;;;;;;;;5074989;28;20040;-79
2023/05/10 04:56:40;;;;;;;16.13;12.80;;;;;;;;;;5091138;28;20047;-78
2023/05/10 04:59:06;;;;;;;22.05;13.65;;;;;;;;;;5076258;28;20123;-79
2023/05/10 05:01:32;;;;;;;22.27;13.43;;;;;;;;;;5082730;28;20060;-79
2023/05/10 05:03:59;;;;;;;16.48;12.55;;;;;;;;;;5080170;28;20068;-78
2023/05/10 05:06:25;;;;;;;17.85;12.40;;;;;;;;;;5088498;28;20580;-81
2023/05/10 05:08:51;;;;;;;19.45;13.15;;;;;;;;;;5077100;28;20135;-78
2023/05/10 05:11:17;;;;;;;15.63;12.43;;;;;;;;;;5077373;28;20135;-79
2023/05/10 05:13:43;;;;;;;21.92;14.02;;;;;;;;;;5084323;28;20036;-78
2023/05/10 05:16:10;;;;;;;20.50;13.80;;;;;;;;;;5084878;28;20036;-80
2023/05/10 05:18:36;;;;;;;15.85;12.00;;;;;;;;;;5089440;28;20039;-78
2023/05/10 05:21:02;;;;;;;16.02;12.23;;;;;;;;;;5088118;28;20438;-78
2023/05/10 05:23:28;;;;;;;21.27;14.27;;;;;;;;;;5077522;28;20036;-79
2023/05/10 05:25:55;;;;;;;17.77;12.70;;;;;;;;;;5088032;28;20051;-79
2023/05/10 05:28:21;;;;;;;14.38;11.55;;;;;;;;;;5072543;28;20050;-79
2023/05/10 05:30:47;;;;;;;14.90;12.23;;;;;;;;;;5084664;28;20040;-79
2023/05/10 05:33:16;;;;;;;18.35;12.43;;;;;;;;;;5078332;28;20048;-79
2023/05/10 05:35:47;;;;;;;13.73;10.75;;;;;;;;;;5069529;28;20495;-78
2023/05/10 05:38:13;;;;;;;13.60;10.75;;;;;;;;;;5069310;28;20437;-82
2023/05/10 05:40:39;;;;;;;11.15;9.90;;;;;;;;;;5087999;28;20047;-78
2023/05/10 05:43:05;;;;;;;11.45;9.50;;;;;;;;;;5086317;28;20105;-82
2023/05/10 05:45:31;;;;;;;60.10;11.95;;;;;;;;;;5066531;28;20047;-79
2023/05/10 05:47:57;;;;;;;11.45;9.43;;;;;;;;;;5103138;27;20059;-80
2023/05/10 05:50:23;;;;;;;10.98;9.27;;;;;;;;;;5079858;28;20040;-79
2023/05/10 05:52:49;;;;;;;11.95;9.10;;;;;;;;;;5111171;27;20045;-78
2023/05/10 05:55:15;;;;;;;11.98;9.40;;;;;;;;;;5065084;28;20408;-80
2023/05/10 05:57:41;;;;;;;13.95;9.73;;;;;;;;;;5059462;28;20136;-79
2023/05/10 06:00:07;;;;;;;11.25;9.23;;;;;;;;;;5090253;28;20155;-77
2023/05/10 06:02:33;;;;;;;11.75;8.32;;;;;;;;;;5098413;28;20716;-78
2023/05/10 06:04:59;;;;;;;37.60;9.18;;;;;;;;;;5102997;27;20047;-81
2023/05/10 06:07:25;;;;;;;7.65;6.85;;;;;;;;;;5060290;28;20047;-79
2023/05/10 06:09:51;;;;;;;11.15;8.10;;;;;;;;;;5078906;28;20038;-81
2023/05/10 06:12:17;;;;;;;9.18;7.60;;;;;;;;;;5069428;28;20040;-78
2023/05/10 06:14:43;;;;;;;12.15;8.93;;;;;;;;;;5071947;28;20044;-80
2023/05/10 06:17:09;;;;;;;7.80;5.50;;;;;;;;;;5068568;28;20048;-83
2023/05/10 06:19:35;;;;;;;7.28;5.05;;;;;;;;;;5082585;28;20134;-82
2023/05/10 06:22:01;;;;;;;5.80;4.32;;;;;;;;;;5072640;28;20040;-81
2023/05/10 06:24:27;;;;;;;4.53;3.50;;;;;;;;;;5069508;28;20040;-80
2023/05/10 06:26:53;;;;;;;5.85;3.72;;;;;;;;;;5078335;28;20090;-82
2023/05/10 06:29:19;;;;;;;3.88;3.08;;;;;;;;;;5079565;28;20116;-79
2023/05/10 06:31:46;;;;;;;4.95;2.33;;;;;;;;;;5072654;28;20044;-81
2023/05/10 06:34:12;;;;;;;2.53;2.33;;;;;;;;;;5074129;28;20048;-78
2023/05/10 06:36:38;;;;;;;2.55;2.33;;;;;;;;;;5073231;28;20044;-79
2023/05/10 06:39:04;;;;;;;4.15;2.30;;;;;;;;;;5076845;28;20051;-83
2023/05/10 06:41:30;;;;;;;2.80;2.45;;;;;;;;;;5099863;28;20038;-83
2023/05/10 06:43:56;;;;;;;2.92;2.63;;;;;;;;;;5075047;28;20052;-81
2023/05/10 06:46:22;;;;;;;2.45;2.25;;;;;;;;;;5065579;28;20081;-79
2023/05/10 06:48:48;;;;;;;3.85;2.92;;;;;;;;;;5079172;28;20062;-82
2023/05/10 06:51:14;;;;;;;3.20;2.70;;;;;;;;;;5070199;28;20043;-78
2023/05/10 06:53:40;;;;;;;2.53;2.17;;;;;;;;;;5089952;28;20155;-83
2023/05/10 06:56:06;;;;;;;3.45;2.60;;;;;;;;;;5079098;28;20039;-82
2023/05/10 06:58:32;;;;;;;2.28;1.85;;;;;;;;;;5075365;28;20507;-82
2023/05/10 07:01:05;;;;;;;2.55;1.80;;;;;;;;;;5098924;27;20043;-81
2023/05/10 07:03:31;;;;;;;2.85;2.30;;;;;;;;;;5074997;28;20047;-80
2023/05/10 07:06:02;;;;;;;3.22;1.80;;;;;;;;;;5078869;28;20039;-83
2023/05/10 07:08:29;;;;;;;4.05;2.03;;;;;;;;;;5077687;28;20095;-82
2023/05/10 07:10:59;;;;;;;3.22;1.75;;;;;;;;;;5066091;28;20040;-81
2023/05/10 07:13:25;;;;;;;2.85;1.95;;;;;;;;;;5077438;28;20578;-79
2023/05/10 07:15:51;;;;;;;1.85;1.30;;;;;;;;;;5082853;28;20053;-78
2023/05/10 07:18:17;;;;;;;2.97;1.30;;;;;;;;;;5075983;28;20084;-81
2023/05/10 07:20:43;;;;;;;2.35;1.40;;;;;;;;;;5081639;28;20510;-80
2023/05/10 07:23:09;;;;;;;1.35;1.00;;;;;;;;;;5083571;28;20078;-82
2023/05/10 07:25:35;;;;;;;1.95;1.15;;;;;;;;;;5062347;28;20036;-81
2023/05/10 07:28:01;;;;;;;105.57;5.35;;;;;;;;;;5084748;28;20564;-83
2023/05/10 07:30:27;;;;;;;757.55;40.08;;;;;;;;;;5082783;28;20048;-80
2023/05/10 07:32:53;;;;;;;1.95;1.10;;;;;;;;;;5079214;28;20494;-78
2023/05/10 07:35:19;;;;;;;1.60;1.00;;;;;;;;;;5082256;28;20040;-80
2023/05/10 07:37:45;;;;;;;2.60;0.65;;;;;;;;;;5085442;28;20036;-80
2023/05/10 07:40:11;;;;;;;1.92;0.40;;;;;;;;;;5081189;28;21590;-81
2023/05/10 07:42:38;;;;;;;0.45;0.45;;;;;;;;;;5076919;28;20032;-80
2023/05/10 07:45:04;;;;;;;0.47;0.47;;;;;;;;;;5087969;28;20032;-82
2023/05/10 07:47:30;;;;;;;0.50;0.40;;;;;;;;;;5081800;27;20074;-80
2023/05/10 07:49:56;;;;;;;0.45;0.45;;;;;;;;;;5087812;28;20048;-78
2023/05/10 07:52:22;;;;;;;0.77;0.50;;;;;;;;;;5083914;28;20102;-81
2023/05/10 07:54:48;;;;;;;0.45;0.45;;;;;;;;;;5083237;28;20108;-78
2023/05/10 07:57:15;;;;;;;0.80;0.50;;;;;;;;;;5062700;28;20047;-79
2023/05/10 07:59:41;;;;;;;0.60;0.60;;;;;;;;;;5079524;28;20205;-79
2023/05/10 08:02:07;;;;;;;1.58;0.75;;;;;;;;;;5064524;28;20075;-82
2023/05/10 08:04:33;;;;;;;0.73;0.73;;;;;;;;;;5107372;27;20051;-82
2023/05/10 08:06:59;;;;;;;1.25;0.90;;;;;;;;;;5067482;28;20044;-80
2023/05/10 08:09:25;;;;;;;1.73;1.33;;;;;;;;;;5066892;28;20047;-82
2023/05/10 08:11:51;;;;;;;1.98;1.88;;;;;;;;;;5079185;28;20044;-82
2023/05/10 08:14:17;;;;;;;2.40;2.20;;;;;;;;;;5089447;28;20051;-81
2023/05/10 08:16:43;;;;;;;3.92;2.60;;;;;;;;;;5075191;28;20548;-81
2023/05/10 08:19:09;;;;;;;4.53;3.05;;;;;;;;;;5077480;28;20535;-80
2023/05/10 08:21:36;;;;;;;3.78;3.47;;;;;;;;;;5081340;28;20040;-78
2023/05/10 08:24:02;;;;;;;4.40;3.75;;;;;;;;;;5071387;28;20138;-80
2023/05/10 08:26:28;;;;;;;6.75;4.75;;;;;;;;;;5067844;28;20158;-81
2023/05/10 08:28:54;;;;;;;4.95;4.55;;;;;;;;;;5112739;27;20036;-79
2023/05/10 08:31:20;;;;;;;5.70;5.20;;;;;;;;;;5064925;28;20530;-82
2023/05/10 08:33:46;;;;;;;6.03;5.53;;;;;;;;;;5080191;28;20079;-78
2023/05/10 08:36:14;;;;;;;6.90;5.25;;;;;;;;;;5066653;28;20051;-77
2023/05/10 08:38:39;;;;;;;5.57;5.07;;;;;;;;;;5077211;28;20048;-81
2023/05/10 08:41:06;;;;;;;6.63;5.93;;;;;;;;;;5081638;28;20052;-78
2023/05/10 08:43:32;;;;;;;6.68;6.00;;;;;;;;;;5072426;28;20060;-78
2023/05/10 08:46:02;;;;;;;6.55;5.85;;;;;;;;;;5075660;28;20043;-83
2023/05/10 08:48:30;;;;;;;9.30;5.95;;;;;;;;;;5083256;28;20051;-79
2023/05/10 08:50:58;;;;;;;7.00;6.35;;;;;;;;;;5055825;28;20093;-78
2023/05/10 08:53:26;;;;;;;6.85;6.10;;;;;;;;;;5071051;28;20040;-79
2023/05/10 08:55:52;;;;;;;7.55;6.63;;;;;;;;;;5069990;28;20471;-79
2023/05/10 08:58:20;;;;;;;8.90;6.75;;;;;;;;;;5060053;28;20122;-78
2023/05/10 09:00:46;;;;;;;8.10;6.18;;;;;;;;;;5076821;27;20589;-78
2023/05/10 09:03:12;;;;;;;7.57;6.88;;;;;;;;;;5076805;28;20151;-78
2023/05/10 09:05:38;;;;;;;9.60;6.80;;;;;;;;;;5078718;28;20040;-78
2023/05/10 09:08:05;;;;;;;8.68;6.63;;;;;;;;;;5080168;28;20044;-78
2023/05/10 09:10:31;;;;;;;7.68;6.78;;;;;;;;;;5072298;28;20055;-78
2023/05/10 09:12:57;;;;;;;9.68;5.97;;;;;;;;;;5072731;28;20036;-79
2023/05/10 09:15:23;;;;;;;6.70;6.10;;;;;;;;;;5076425;28;20043;-78
2023/05/10 09:17:50;;;;;;;6.25;5.50;;;;;;;;;;5078632;28;20113;-79
2023/05/10 09:20:17;;;;;;;5.97;5.38;;;;;;;;;;5076391;28;20135;-78
2023/05/10 09:22:43;;;;;;;12.07;6.43;;;;;;;;;;5069427;28;20056;-79
2023/05/10 09:25:13;;;;;;;12.95;7.38;;;;;;;;;;5062992;28;20040;-80
2023/05/10 09:27:40;;;;;;;6.45;5.57;;;;;;;;;;5073768;28;20421;-78
2023/05/10 09:30:07;;;;;;;8.48;5.38;;;;;;;;;;5073533;28;21029;-78
2023/05/10 09:32:39;;;;;;;7.60;5.93;;;;;;;;;;5103829;27;20040;-77
2023/05/10 09:35:08;;;;;;;7.47;6.38;;;;;;;;;;5080643;28;20086;-79
2023/05/10 09:37:35;;;;;;;7.28;5.63;;;;;;;;;;5073641;28;20146;-79
2023/05/10 09:40:01;;;;;;;7.72;5.03;;;;;;;;;;5081505;28;20053;-80
2023/05/10 09:42:27;;;;;;;13.32;6.35;;;;;;;;;;5071675;28;20040;-78
2023/05/10 09:44:53;;;;;;;8.70;5.20;;;;;;;;;;5067017;28;20101;-78
2023/05/10 09:47:19;;;;;;;8.13;4.63;;;;;;;;;;5072392;28;20048;-78
2023/05/10 09:49:50;;;;;;;6.68;4.88;;;;;;;;;;5104488;27;20113;-77
2023/05/10 09:52:16;;;;;;;5.72;5.13;;;;;;;;;;5052528;28;20045;-79
2023/05/10 09:54:46;;;;;;;7.97;4.65;;;;;;;;;;5083519;28;20087;-78
2023/05/10 09:57:21;;;;;;;6.45;4.53;;;;;;;;;;5071088;28;20135;-78
2023/05/10 09:59:48;;;;;;;5.70;4.18;;;;;;;;;;5107041;27;20411;-79
2023/05/10 10:02:14;;;;;;;4.57;4.00;;;;;;;;;;5072633;28;20467;-78
2023/05/10 10:04:40;;;;;;;4.60;4.18;;;;;;;;;;5073525;28;20515;-79
2023/05/10 10:07:07;;;;;;;5.03;4.60;;;;;;;;;;5102865;28;20070;-78
2023/05/10 10:09:34;;;;;;;5.72;5.18;;;;;;;;;;5071695;28;20048;-80
2023/05/10 10:12:01;;;;;;;5.70;4.60;;;;;;;;;;5110378;28;20044;-82
2023/05/10 10:14:27;;;;;;;5.95;4.40;;;;;;;;;;5061373;28;20496;-79
2023/05/10 10:16:53;;;;;;;7.75;4.95;;;;;;;;;;5068800;28;20051;-82
2023/05/10 10:19:20;;;;;;;6.15;5.55;;;;;;;;;;5073207;28;20044;-81
2023/05/10 10:21:46;;;;;;;5.55;4.80;;;;;;;;;;5057998;28;20443;-79
2023/05/10 10:24:12;;;;;;;6.88;4.85;;;;;;;;;;5073215;28;20048;-78
2023/05/10 10:26:40;;;;;;;7.47;5.28;;;;;;;;;;5077219;28;20044;-81
2023/05/10 10:29:15;;;;;;;5.82;4.82;;;;;;;;;;5078651;28;20041;-78
2023/05/10 10:31:52;;;;;;;7.22;5.03;;;;;;;;;;5072130;28;20048;-78
2023/05/10 10:34:28;;;;;;;6.25;4.93;;;;;;;;;;5114202;27;20044;-80
2023/05/10 10:36:54;;;;;;;6.97;5.50;;;;;;;;;;5075313;28;20056;-78
2023/05/10 10:39:21;;;;;;;6.63;5.15;;;;;;;;;;5082965;28;20083;-79
2023/05/10 10:41:57;;;;;;;6.25;4.78;;;;;;;;;;5087599;28;20051;-82
2023/05/10 10:44:24;;;;;;;7.95;5.53;;;;;;;;;;5076645;28;20132;-79
2023/05/10 10:47:07;;;;;;;6.30;5.40;;;;;;;;;;5073669;28;20488;-80
2023/05/10 10:49:37;;;;;;;11.18;5.05;;;;;;;;;;5079782;28;20053;-80
2023/05/10 10:52:13;;;;;;;6.82;5.68;;;;;;;;;;5084538;28;20071;-82
2023/05/10 10:54:40;;;;;;;8.00;5.82;;;;;;;;;;5094826;27;20055;-81
2023/05/10 10:57:11;;;;;;;8.88;6.00;;;;;;;;;;5086053;28;20074;-80
2023/05/10 10:59:42;;;;;;;7.70;5.82;;;;;;;;;;5086197;28;20051;-80
2023/05/10 11:02:08;;;;;;;8.18;5.70;;;;;;;;;;5085548;28;20068;-81
2023/05/10 11:04:46;;;;;;;9.57;6.10;;;;;;;;;;5081737;28;20068;-81
2023/05/10 11:07:22;;;;;;;8.98;6.20;;;;;;;;;;5081370;28;20051;-81
2023/05/10 11:09:49;;;;;;;8.32;6.03;;;;;;;;;;5078852;28;20059;-80
2023/05/10 11:12:15;;;;;;;7.50;6.00;;;;;;;;;;5106330;27;20044;-77
2023/05/10 11:14:41;;;;;;;8.23;5.50;;;;;;;;;;5058283;28;20072;-78
2023/05/10 11:17:30;;;;;;;9.18;5.97;;;;;;;;;;5056242;28;20791;-80
2023/05/10 11:20:07;;;;;;;7.88;5.50;;;;;;;;;;5106948;27;20051;-81
2023/05/10 11:22:49;;;;;;;8.60;5.80;;;;;;;;;;5109581;27;20079;-80
2023/05/10 11:25:15;;;;;;;6.97;5.72;;;;;;;;;;5054593;28;20036;-78
2023/05/10 11:27:42;;;;;;;7.75;5.35;;;;;;;;;;5069479;28;20044;-81
2023/05/10 11:30:10;;;;;;;8.20;5.60;;;;;;;;;;5091855;28;20048;-79
2023/05/10 11:32:38;;;;;;;5.47;4.95;;;;;;;;;;5058095;28;20159;-82
2023/05/10 11:35:07;;;;;;;11.83;6.23;;;;;;;;;;5072754;28;20624;-77
2023/05/10 11:37:34;;;;;;;9.73;5.60;;;;;;;;;;5071392;28;20872;-80
2023/05/10 11:40:00;;;;;;;7.32;5.40;;;;;;;;;;5081472;28;20040;-81
2023/05/10 11:42:27;;;;;;;9.32;5.28;;;;;;;;;;5082548;28;20128;-80
2023/05/10 11:44:53;;;;;;;8.20;5.60;;;;;;;;;;5087415;27;20046;-77
2023/05/10 11:47:19;;;;;;;7.20;5.32;;;;;;;;;;5081440;28;20387;-81
2023/05/10 11:49:46;;;;;;;8.60;5.60;;;;;;;;;;5083260;28;20143;-79
2023/05/10 11:52:12;;;;;;;9.55;6.10;;;;;;;;;;5068552;28;20036;-79
2023/05/10 11:54:38;;;;;;;11.05;5.63;;;;;;;;;;5081336;28;20048;-76
2023/05/10 11:57:04;;;;;;;10.57;6.00;;;;;;;;;;5084851;28;20153;-79
2023/05/10 11:59:30;;;;;;;11.68;5.40;;;;;;;;;;5105805;27;20105;-79
2023/05/10 12:01:56;;;;;;;6.45;5.65;;;;;;;;;;5116552;27;20043;-78
2023/05/10 12:04:23;;;;;;;8.75;5.43;;;;;;;;;;5084696;28;20039;-76
2023/05/10 12:06:49;;;;;;;7.20;5.20;;;;;;;;;;5075166;28;20036;-77
2023/05/10 12:09:15;;;;;;;7.03;5.45;;;;;;;;;;5090834;27;20127;-80
2023/05/10 12:11:41;;;;;;;9.52;5.82;;;;;;;;;;5079650;28;20071;-77
2023/05/10 12:14:09;;;;;;;7.88;5.40;;;;;;;;;;5085509;28;20148;-79
2023/05/10 12:16:36;;;;;;;7.03;5.65;;;;;;;;;;5065332;28;20629;-77
2023/05/10 12:19:02;;;;;;;8.00;5.28;;;;;;;;;;5122182;27;20043;-81
2023/05/10 12:21:33;;;;;;;8.00;4.93;;;;;;;;;;5067600;28;20046;-79
2023/05/10 12:24:03;;;;;;;6.43;5.15;;;;;;;;;;5060863;28;20776;-77
2023/05/10 12:26:29;;;;;;;7.75;4.80;;;;;;;;;;5095662;27;20065;-78
2023/05/10 12:28:56;;;;;;;6.68;4.65;;;;;;;;;;5075933;28;20068;-76
2023/05/10 12:31:22;;;;;;;7.70;5.28;;;;;;;;;;5083841;28;20131;-78
2023/05/10 12:33:49;;;;;;;9.00;5.10;;;;;;;;;;5062787;28;20039;-78
2023/05/10 12:36:15;;;;;;;9.88;5.45;;;;;;;;;;5067132;28;20039;-80
2023/05/10 12:38:48;;;;;;;11.32;5.85;;;;;;;;;;5070806;28;20044;-77
2023/05/10 12:41:15;;;;;;;7.85;5.40;;;;;;;;;;5077616;28;20047;-76
2023/05/10 12:43:41;;;;;;;8.63;5.70;;;;;;;;;;5083648;28;20556;-78
2023/05/10 12:46:11;;;;;;;6.78;5.40;;;;;;;;;;5077116;28;20052;-79
2023/05/10 12:48:38;;;;;;;8.68;6.70;;;;;;;;;;5075010;28;20054;-78
2023/05/10 12:51:04;;;;;;;8.95;6.63;;;;;;;;;;5072133;28;20052;-78
2023/05/10 12:53:31;;;;;;;9.70;6.82;;;;;;;;;;5086097;28;20032;-79
2023/05/10 12:55:58;;;;;;;8.82;6.38;;;;;;;;;;5068750;28;20486;-81
2023/05/10 12:58:24;;;;;;;11.32;6.65;;;;;;;;;;5079151;28;20048;-78
2023/05/10 13:00:51;;;;;;;9.38;6.97;;;;;;;;;;5077260;28;20036;-78
2023/05/10 13:03:17;;;;;;;10.85;7.28;;;;;;;;;;5073438;28;20044;-77
2023/05/10 13:05:43;;;;;;;10.52;7.10;;;;;;;;;;5079096;28;20600;-77
2023/05/10 13:08:09;;;;;;;10.20;7.43;;;;;;;;;;5077890;28;21078;-77
2023/05/10 13:10:35;;;;;;;14.48;8.20;;;;;;;;;;5088921;27;20049;-76
2023/05/10 13:13:01;;;;;;;10.60;8.05;;;;;;;;;;5079690;28;20043;-79
2023/05/10 13:15:27;;;;;;;9.70;7.60;;;;;;;;;;5089007;27;20036;-77
2023/05/10 13:17:54;;;;;;;12.15;7.95;;;;;;;;;;5068858;28;20049;-78
2023/05/10 13:20:21;;;;;;;9.85;7.97;;;;;;;;;;5098232;27;20086;-78
2023/05/10 13:22:47;;;;;;;13.23;8.63;;;;;;;;;;5079847;28;20047;-77
2023/05/10 13:25:13;;;;;;;10.55;8.25;;;;;;;;;;5081488;28;20032;-78
2023/05/10 13:27:40;;;;;;;15.77;7.68;;;;;;;;;;5077186;28;20101;-77
2023/05/10 13:30:07;;;;;;;12.27;8.95;;;;;;;;;;5077281;28;20056;-80
2023/05/10 13:32:33;;;;;;;12.57;8.40;;;;;;;;;;5075699;28;20046;-76
2023/05/10 13:34:59;;;;;;;11.93;7.65;;;;;;;;;;5070696;28;20040;-77
2023/05/10 13:37:25;;;;;;;11.65;8.73;;;;;;;;;;5083998;28;20044;-77
2023/05/10 13:39:51;;;;;;;11.85;8.10;;;;;;;;;;5083734;28;20050;-79
2023/05/10 13:42:17;;;;;;;11.77;8.13;;;;;;;;;;5097902;28;20071;-79
2023/05/10 13:44:43;;;;;;;11.90;8.45;;;;;;;;;;5077633;28;20055;-78
2023/05/10 13:47:10;;;;;;;12.13;8.63;;;;;;;;;;5084284;28;20043;-79
2023/05/10 13:49:36;;;;;;;11.13;7.95;;;;;;;;;;5066316;28;20117;-80
2023/05/10 13:52:06;;;;;;;10.30;7.25;;;;;;;;;;5083603;28;20059;-79
2023/05/10 13:54:32;;;;;;;9.93;7.32;;;;;;;;;;5095364;27;20048;-80
2023/05/10 13:56:58;;;;;;;10.23;7.75;;;;;;;;;;5106983;27;20040;-80
2023/05/10 13:59:24;;;;;;;9.93;7.20;;;;;;;;;;5074787;28;20399;-77
2023/05/10 14:01:51;;;;;;;10.02;7.03;;;;;;;;;;5105751;28;20601;-76
2023/05/10 14:04:17;;;;;;;8.45;6.50;;;;;;;;;;5098536;28;20504;-77
2023/05/10 14:06:43;;;;;;;9.05;7.10;;;;;;;;;;5060066;28;20039;-77
2023/05/10 14:09:09;;;;;;;8.50;6.72;;;;;;;;;;5076673;28;20055;-77
2023/05/10 14:11:35;;;;;;;10.13;6.40;;;;;;;;;;5109341;27;20156;-79
2023/05/10 14:14:01;;;;;;;10.63;6.35;;;;;;;;;;5082408;28;20131;-77
2023/05/10 14:16:27;;;;;;;11.07;7.32;;;;;;;;;;5079828;28;20036;-77
2023/05/10 14:18:53;;;;;;;10.65;6.57;;;;;;;;;;5085623;28;20039;-77
2023/05/10 14:21:19;;;;;;;10.80;7.15;;;;;;;;;;5072814;28;20048;-77
2023/05/10 14:23:45;;;;;;;11.32;7.43;;;;;;;;;;5075614;28;20667;-77
2023/05/10 14:26:11;;;;;;;9.43;6.80;;;;;;;;;;5109004;27;20040;-77
2023/05/10 14:28:37;;;;;;;8.70;5.65;;;;;;;;;;5069254;28;20079;-79
2023/05/10 14:31:05;;;;;;;7.93;5.63;;;;;;;;;;5106287;27;20044;-78